메인 페이지
METAR-TAF:

METAR-TAF

공항 :

샤르자 국제공항

Sharjah, 아랍에미리트

위도: 25-20N, 경도: 055-31E, 고도: 35m

현재 날씨관측

예보는 30분 전, 09:00시(UTC)에 발표되었습니다.
서남서12kt
온도 39°C
습도 40%
기압 1001 hPa
시정 10km 이상
1500m 미만 상공 구름 및 적란운 없음

METAR: OMSJ 040900Z 24012KT CAVOK 39/23 Q1001 NOSIG

시각: 13:30 (09:30 UTC)

예보

예보는 4 시간 36분 전, 04:54시(UTC)에 발표되었습니다.
예보 대상 시간: 04일 06시부터 05일 12시까지 (UTC)
남남서7kt
시정: 8000m
전환 중
04일 06시부터 04일 08시까지 (UTC)
12kt
전환 중
04일 15시부터 04일 17시까지 (UTC)
5kt
확률 30%
04일 23시부터 05일 04시까지 (UTC)
시정: 4000m
연무
전환 중
05일 06시부터 05일 08시까지 (UTC)
북서10kt

TAF: OMSJ 040454Z 0406/0512 21007KT 8000 NSC BECMG 0406/0408 27012KT BECMG 0415/0417 19005KT PROB30 0423/0504 4000 HZ BECMG 0506/0508 31010KT

4,000개 이상의 공항 관측 자료 및 예보 (METAR 및 TAF 보고).

지도상에서 검색 가능한 기상관측소가 노란 점과 빨간 점으로 표시되어 있습니다.

기상관측소 명을 보려면 표시 위로 마우스를 이동하세요.

날씨 관측과 예보를 보려면 클릭하세요.

지도 변경 : 확대하려면 엑스 표시가 있는 녹색 버튼, 축소하려면 빼기 표시가 있는 녹색 버튼, 다음 페이지의 지도를 보려면 녹색 화살표를 클릭하세요.


METAR-TAF: